Hathaway, Montana
Current Conditions -  °F | °C
As of 1:53 PM on Thursday 25 Dec 2014 (Local Time) from KMLS Reporting Station
Overcast Overcast  
Wind Chill: 16°   Ceiling: 1600
Heat Index: 25°   Visibility: 10mi
Dew Point: 21°   Wind: 9mph
Humidity: 85%   Direction: 340°NNW
Pressure: 29.92"   Gusts: NA
Location:  46.28°N, 106.2°W
Report Text: KMLS 252053Z AUTO 34008KT 10SM OVC016 M04/M06 A2992 RMK AO2 SLP161 T10391061 53010
Loading
Personal Weather Stations






























Interactive Weather Map New forecast layout! Learn more

10-Day Weather Forecast

Advertisements
Track Severe Weather on mobile